sensor_id;sensor_type;location;lat;lon;timestamp;P1;durP1;ratioP1;P2;durP2;ratioP2
727;SDS011;347;48.780;9.158;2023-05-10T00:00:27;6.93;;;6.70;;
727;SDS011;347;48.780;9.158;2023-05-10T00:02:52;7.37;;;7.00;;
727;SDS011;347;48.780;9.158;2023-05-10T00:05:18;6.90;;;6.67;;
727;SDS011;347;48.780;9.158;2023-05-10T00:07:43;6.67;;;6.47;;
727;SDS011;347;48.780;9.158;2023-05-10T00:10:09;7.10;;;6.90;;
727;SDS011;347;48.780;9.158;2023-05-10T00:12:35;6.00;;;5.80;;
727;SDS011;347;48.780;9.158;2023-05-10T00:15:01;6.20;;;6.00;;
727;SDS011;347;48.780;9.158;2023-05-10T00:17:27;6.73;;;6.43;;
727;SDS011;347;48.780;9.158;2023-05-10T00:19:53;6.60;;;6.37;;
727;SDS011;347;48.780;9.158;2023-05-10T00:22:19;6.57;;;6.37;;
727;SDS011;347;48.780;9.158;2023-05-10T00:24:45;6.47;;;6.27;;
727;SDS011;347;48.780;9.158;2023-05-10T00:27:10;6.43;;;6.23;;
727;SDS011;347;48.780;9.158;2023-05-10T00:29:36;6.90;;;6.70;;
727;SDS011;347;48.780;9.158;2023-05-10T00:32:01;6.70;;;6.50;;
727;SDS011;347;48.780;9.158;2023-05-10T00:34:27;7.37;;;7.17;;
727;SDS011;347;48.780;9.158;2023-05-10T00:36:52;6.87;;;6.67;;
727;SDS011;347;48.780;9.158;2023-05-10T00:39:18;6.40;;;6.20;;
727;SDS011;347;48.780;9.158;2023-05-10T00:41:43;7.53;;;6.97;;
727;SDS011;347;48.780;9.158;2023-05-10T00:44:09;6.90;;;6.70;;
727;SDS011;347;48.780;9.158;2023-05-10T00:46:34;6.97;;;6.77;;
727;SDS011;347;48.780;9.158;2023-05-10T00:49:00;7.20;;;6.80;;
727;SDS011;347;48.780;9.158;2023-05-10T00:51:26;7.27;;;7.03;;
727;SDS011;347;48.780;9.158;2023-05-10T00:53:52;7.13;;;6.93;;
727;SDS011;347;48.780;9.158;2023-05-10T00:56:18;7.30;;;7.10;;
727;SDS011;347;48.780;9.158;2023-05-10T00:58:47;7.10;;;6.80;;
727;SDS011;347;48.780;9.158;2023-05-10T01:01:13;7.97;;;7.67;;
727;SDS011;347;48.780;9.158;2023-05-10T01:03:39;7.97;;;7.67;;
727;SDS011;347;48.780;9.158;2023-05-10T01:06:05;7.60;;;7.40;;
727;SDS011;347;48.780;9.158;2023-05-10T01:08:31;7.70;;;7.40;;
727;SDS011;347;48.780;9.158;2023-05-10T01:10:57;7.57;;;7.37;;
727;SDS011;347;48.780;9.158;2023-05-10T01:13:27;7.60;;;7.20;;
727;SDS011;347;48.780;9.158;2023-05-10T01:16:00;7.30;;;7.00;;
727;SDS011;347;48.780;9.158;2023-05-10T01:18:28;7.80;;;7.60;;
727;SDS011;347;48.780;9.158;2023-05-10T01:23:53;7.60;;;7.27;;
727;SDS011;347;48.780;9.158;2023-05-10T01:26:48;8.23;;;7.60;;
727;SDS011;347;48.780;9.158;2023-05-10T01:32:37;8.27;;;7.97;;
727;SDS011;347;48.780;9.158;2023-05-10T01:35:17;9.10;;;8.60;;
727;SDS011;347;48.780;9.158;2023-05-10T01:37:48;8.70;;;8.50;;
727;SDS011;347;48.780;9.158;2023-05-10T01:40:26;8.20;;;7.90;;
727;SDS011;347;48.780;9.158;2023-05-10T01:43:01;8.47;;;8.07;;
727;SDS011;347;48.780;9.158;2023-05-10T01:45:33;8.00;;;7.70;;
727;SDS011;347;48.780;9.158;2023-05-10T01:48:10;8.07;;;7.87;;
727;SDS011;347;48.780;9.158;2023-05-10T01:50:37;8.40;;;8.20;;
727;SDS011;347;48.780;9.158;2023-05-10T01:53:08;8.27;;;7.97;;
727;SDS011;347;48.780;9.158;2023-05-10T01:55:43;7.87;;;7.57;;
727;SDS011;347;48.780;9.158;2023-05-10T01:58:14;8.20;;;7.90;;
727;SDS011;347;48.780;9.158;2023-05-10T02:00:44;8.30;;;8.10;;
727;SDS011;347;48.780;9.158;2023-05-10T02:03:11;8.13;;;7.73;;
727;SDS011;347;48.780;9.158;2023-05-10T02:05:39;7.90;;;7.60;;
727;SDS011;347;48.780;9.158;2023-05-10T02:08:07;8.20;;;7.90;;
727;SDS011;347;48.780;9.158;2023-05-10T02:10:34;8.50;;;8.30;;
727;SDS011;347;48.780;9.158;2023-05-10T02:13:01;8.10;;;7.90;;
727;SDS011;347;48.780;9.158;2023-05-10T02:15:27;8.33;;;8.13;;
727;SDS011;347;48.780;9.158;2023-05-10T02:17:54;7.97;;;7.77;;
727;SDS011;347;48.780;9.158;2023-05-10T02:20:21;8.20;;;8.00;;
727;SDS011;347;48.780;9.158;2023-05-10T02:22:49;8.43;;;8.23;;
727;SDS011;347;48.780;9.158;2023-05-10T02:25:16;8.23;;;8.03;;
727;SDS011;347;48.780;9.158;2023-05-10T02:27:44;8.53;;;8.23;;
727;SDS011;347;48.780;9.158;2023-05-10T02:30:11;8.70;;;8.40;;
727;SDS011;347;48.780;9.158;2023-05-10T02:32:37;8.80;;;8.37;;
727;SDS011;347;48.780;9.158;2023-05-10T02:35:04;8.50;;;8.20;;
727;SDS011;347;48.780;9.158;2023-05-10T02:37:31;9.10;;;8.70;;
727;SDS011;347;48.780;9.158;2023-05-10T02:39:57;8.13;;;7.73;;
727;SDS011;347;48.780;9.158;2023-05-10T02:42:25;8.80;;;8.50;;
727;SDS011;347;48.780;9.158;2023-05-10T02:44:53;8.90;;;8.60;;
727;SDS011;347;48.780;9.158;2023-05-10T02:47:24;9.40;;;9.00;;
727;SDS011;347;48.780;9.158;2023-05-10T02:49:49;8.37;;;8.10;;
727;SDS011;347;48.780;9.158;2023-05-10T02:52:16;8.50;;;8.30;;
727;SDS011;347;48.780;9.158;2023-05-10T02:54:49;8.63;;;8.33;;
727;SDS011;347;48.780;9.158;2023-05-10T02:57:17;8.37;;;8.17;;
727;SDS011;347;48.780;9.158;2023-05-10T02:59:50;8.20;;;8.00;;
727;SDS011;347;48.780;9.158;2023-05-10T03:02:16;8.17;;;7.97;;
727;SDS011;347;48.780;9.158;2023-05-10T03:04:41;8.23;;;7.83;;
727;SDS011;347;48.780;9.158;2023-05-10T03:07:07;7.67;;;7.47;;
727;SDS011;347;48.780;9.158;2023-05-10T03:09:33;7.93;;;7.73;;
727;SDS011;347;48.780;9.158;2023-05-10T03:17:46;7.30;;;7.10;;
727;SDS011;347;48.780;9.158;2023-05-10T03:20:31;7.17;;;6.97;;
727;SDS011;347;48.780;9.158;2023-05-10T03:23:05;7.43;;;7.23;;
727;SDS011;347;48.780;9.158;2023-05-10T03:25:37;7.67;;;7.47;;
727;SDS011;347;48.780;9.158;2023-05-10T03:28:03;7.70;;;7.50;;
727;SDS011;347;48.780;9.158;2023-05-10T03:30:29;7.33;;;7.13;;
727;SDS011;347;48.780;9.158;2023-05-10T03:32:57;8.40;;;8.03;;
727;SDS011;347;48.780;9.158;2023-05-10T03:35:22;8.03;;;7.73;;
727;SDS011;347;48.780;9.158;2023-05-10T03:37:48;7.73;;;7.53;;
727;SDS011;347;48.780;9.158;2023-05-10T03:40:14;7.73;;;7.43;;
727;SDS011;347;48.780;9.158;2023-05-10T03:42:40;7.27;;;6.97;;
727;SDS011;347;48.780;9.158;2023-05-10T03:45:06;7.80;;;7.60;;
727;SDS011;347;48.780;9.158;2023-05-10T03:47:32;8.10;;;7.60;;
727;SDS011;347;48.780;9.158;2023-05-10T03:49:57;7.80;;;7.60;;
727;SDS011;347;48.780;9.158;2023-05-10T03:52:23;9.07;;;8.33;;
727;SDS011;347;48.780;9.158;2023-05-10T03:54:48;8.23;;;8.03;;
727;SDS011;347;48.780;9.158;2023-05-10T03:57:14;8.40;;;8.20;;
727;SDS011;347;48.780;9.158;2023-05-10T03:59:39;9.03;;;8.53;;
727;SDS011;347;48.780;9.158;2023-05-10T04:02:05;8.50;;;8.30;;
727;SDS011;347;48.780;9.158;2023-05-10T04:04:30;8.40;;;8.20;;
727;SDS011;347;48.780;9.158;2023-05-10T04:06:56;8.07;;;7.87;;
727;SDS011;347;48.780;9.158;2023-05-10T04:09:21;8.60;;;8.30;;
727;SDS011;347;48.780;9.158;2023-05-10T04:11:47;8.50;;;8.30;;
727;SDS011;347;48.780;9.158;2023-05-10T04:14:12;9.07;;;8.57;;
727;SDS011;347;48.780;9.158;2023-05-10T04:16:38;8.70;;;8.50;;
727;SDS011;347;48.780;9.158;2023-05-10T04:19:03;10.03;;;9.73;;
727;SDS011;347;48.780;9.158;2023-05-10T04:21:29;10.00;;;9.70;;
727;SDS011;347;48.780;9.158;2023-05-10T04:23:55;8.57;;;8.33;;
727;SDS011;347;48.780;9.158;2023-05-10T04:26:20;9.20;;;8.90;;
727;SDS011;347;48.780;9.158;2023-05-10T04:28:46;9.80;;;9.40;;
727;SDS011;347;48.780;9.158;2023-05-10T04:31:12;9.50;;;9.20;;
727;SDS011;347;48.780;9.158;2023-05-10T04:33:37;9.97;;;9.67;;
727;SDS011;347;48.780;9.158;2023-05-10T04:36:03;9.00;;;8.80;;
727;SDS011;347;48.780;9.158;2023-05-10T04:38:29;8.43;;;8.13;;
727;SDS011;347;48.780;9.158;2023-05-10T04:41:03;9.23;;;8.93;;
727;SDS011;347;48.780;9.158;2023-05-10T04:43:32;9.70;;;9.40;;
727;SDS011;347;48.780;9.158;2023-05-10T04:45:58;9.60;;;9.10;;
727;SDS011;347;48.780;9.158;2023-05-10T04:48:23;9.43;;;9.13;;
727;SDS011;347;48.780;9.158;2023-05-10T04:50:49;9.13;;;8.83;;
727;SDS011;347;48.780;9.158;2023-05-10T04:53:14;9.73;;;9.43;;
727;SDS011;347;48.780;9.158;2023-05-10T04:55:40;9.80;;;9.50;;
727;SDS011;347;48.780;9.158;2023-05-10T04:58:05;8.50;;;8.20;;
727;SDS011;347;48.780;9.158;2023-05-10T05:00:32;9.23;;;8.93;;
727;SDS011;347;48.780;9.158;2023-05-10T05:02:58;8.63;;;8.43;;
727;SDS011;347;48.780;9.158;2023-05-10T05:05:24;10.10;;;9.70;;
727;SDS011;347;48.780;9.158;2023-05-10T05:07:49;10.00;;;9.70;;
727;SDS011;347;48.780;9.158;2023-05-10T05:10:15;9.50;;;9.20;;
727;SDS011;347;48.780;9.158;2023-05-10T05:12:40;9.87;;;9.57;;
727;SDS011;347;48.780;9.158;2023-05-10T05:15:06;10.30;;;9.80;;
727;SDS011;347;48.780;9.158;2023-05-10T05:17:34;10.30;;;10.00;;
727;SDS011;347;48.780;9.158;2023-05-10T05:19:59;10.50;;;9.90;;
727;SDS011;347;48.780;9.158;2023-05-10T05:22:25;9.83;;;9.47;;
727;SDS011;347;48.780;9.158;2023-05-10T05:24:52;12.87;;;12.23;;
727;SDS011;347;48.780;9.158;2023-05-10T05:27:21;10.70;;;10.23;;
727;SDS011;347;48.780;9.158;2023-05-10T05:29:49;9.60;;;9.30;;
727;SDS011;347;48.780;9.158;2023-05-10T05:32:18;10.30;;;10.00;;
727;SDS011;347;48.780;9.158;2023-05-10T05:34:44;9.87;;;9.57;;
727;SDS011;347;48.780;9.158;2023-05-10T05:37:13;9.53;;;9.13;;
727;SDS011;347;48.780;9.158;2023-05-10T05:39:40;8.93;;;8.63;;
727;SDS011;347;48.780;9.158;2023-05-10T05:42:05;10.00;;;9.70;;
727;SDS011;347;48.780;9.158;2023-05-10T05:44:31;9.77;;;9.23;;
727;SDS011;347;48.780;9.158;2023-05-10T05:46:57;10.00;;;9.60;;
727;SDS011;347;48.780;9.158;2023-05-10T05:49:22;8.73;;;8.43;;
727;SDS011;347;48.780;9.158;2023-05-10T05:51:48;8.57;;;8.27;;
727;SDS011;347;48.780;9.158;2023-05-10T05:54:15;9.50;;;8.90;;
727;SDS011;347;48.780;9.158;2023-05-10T05:56:40;8.50;;;8.20;;
727;SDS011;347;48.780;9.158;2023-05-10T05:59:06;9.10;;;8.80;;
727;SDS011;347;48.780;9.158;2023-05-10T06:01:32;8.87;;;8.37;;
727;SDS011;347;48.780;9.158;2023-05-10T06:03:57;8.23;;;7.97;;
727;SDS011;347;48.780;9.158;2023-05-10T06:06:23;8.50;;;8.20;;
727;SDS011;347;48.780;9.158;2023-05-10T06:08:48;7.77;;;7.47;;
727;SDS011;347;48.780;9.158;2023-05-10T06:11:14;8.00;;;7.30;;
727;SDS011;347;48.780;9.158;2023-05-10T06:13:39;9.10;;;8.70;;
727;SDS011;347;48.780;9.158;2023-05-10T06:16:05;8.40;;;8.10;;
727;SDS011;347;48.780;9.158;2023-05-10T06:18:31;8.10;;;7.80;;
727;SDS011;347;48.780;9.158;2023-05-10T06:20:56;8.50;;;8.20;;
727;SDS011;347;48.780;9.158;2023-05-10T06:23:22;8.80;;;8.50;;
727;SDS011;347;48.780;9.158;2023-05-10T06:25:47;8.60;;;8.30;;
727;SDS011;347;48.780;9.158;2023-05-10T06:28:13;8.90;;;8.60;;
727;SDS011;347;48.780;9.158;2023-05-10T06:30:39;8.57;;;8.20;;
727;SDS011;347;48.780;9.158;2023-05-10T06:33:04;9.13;;;8.73;;
727;SDS011;347;48.780;9.158;2023-05-10T06:35:30;8.13;;;7.83;;
727;SDS011;347;48.780;9.158;2023-05-10T06:37:57;7.87;;;7.57;;
727;SDS011;347;48.780;9.158;2023-05-10T06:40:23;8.47;;;7.97;;
727;SDS011;347;48.780;9.158;2023-05-10T06:42:48;7.40;;;7.10;;
727;SDS011;347;48.780;9.158;2023-05-10T06:45:14;8.13;;;7.60;;
727;SDS011;347;48.780;9.158;2023-05-10T06:47:40;7.80;;;7.50;;
727;SDS011;347;48.780;9.158;2023-05-10T06:50:07;8.60;;;8.10;;
727;SDS011;347;48.780;9.158;2023-05-10T06:52:33;8.90;;;8.60;;
727;SDS011;347;48.780;9.158;2023-05-10T06:54:58;10.00;;;9.20;;
727;SDS011;347;48.780;9.158;2023-05-10T06:57:25;9.73;;;9.23;;
727;SDS011;347;48.780;9.158;2023-05-10T06:59:50;8.80;;;8.37;;
727;SDS011;347;48.780;9.158;2023-05-10T07:02:17;8.70;;;8.27;;
727;SDS011;347;48.780;9.158;2023-05-10T07:04:42;8.47;;;8.03;;
727;SDS011;347;48.780;9.158;2023-05-10T07:07:08;9.23;;;8.73;;
727;SDS011;347;48.780;9.158;2023-05-10T07:09:33;9.00;;;8.60;;
727;SDS011;347;48.780;9.158;2023-05-10T07:11:59;8.87;;;8.47;;
727;SDS011;347;48.780;9.158;2023-05-10T07:14:26;9.43;;;8.73;;
727;SDS011;347;48.780;9.158;2023-05-10T07:16:52;8.87;;;8.40;;
727;SDS011;347;48.780;9.158;2023-05-10T07:19:18;8.53;;;8.23;;
727;SDS011;347;48.780;9.158;2023-05-10T07:21:44;9.53;;;9.13;;
727;SDS011;347;48.780;9.158;2023-05-10T07:24:10;8.90;;;8.40;;
727;SDS011;347;48.780;9.158;2023-05-10T07:26:35;8.80;;;8.50;;
727;SDS011;347;48.780;9.158;2023-05-10T07:29:01;7.73;;;7.50;;
727;SDS011;347;48.780;9.158;2023-05-10T07:31:27;7.83;;;7.53;;
727;SDS011;347;48.780;9.158;2023-05-10T07:33:52;8.27;;;7.87;;
727;SDS011;347;48.780;9.158;2023-05-10T07:36:18;8.20;;;7.90;;
727;SDS011;347;48.780;9.158;2023-05-10T07:38:44;8.27;;;7.97;;
727;SDS011;347;48.780;9.158;2023-05-10T07:41:10;9.50;;;9.10;;
727;SDS011;347;48.780;9.158;2023-05-10T07:43:36;9.40;;;9.10;;
727;SDS011;347;48.780;9.158;2023-05-10T07:46:02;9.60;;;9.30;;
727;SDS011;347;48.780;9.158;2023-05-10T07:48:27;9.73;;;9.33;;
727;SDS011;347;48.780;9.158;2023-05-10T07:50:53;9.17;;;8.77;;
727;SDS011;347;48.780;9.158;2023-05-10T07:53:18;9.97;;;9.40;;
727;SDS011;347;48.780;9.158;2023-05-10T07:55:44;10.80;;;10.30;;
727;SDS011;347;48.780;9.158;2023-05-10T07:58:14;9.40;;;9.00;;
727;SDS011;347;48.780;9.158;2023-05-10T08:00:40;9.83;;;9.53;;
727;SDS011;347;48.780;9.158;2023-05-10T08:03:06;9.83;;;9.53;;
727;SDS011;347;48.780;9.158;2023-05-10T08:05:31;9.43;;;9.03;;
727;SDS011;347;48.780;9.158;2023-05-10T08:07:57;9.50;;;9.17;;
727;SDS011;347;48.780;9.158;2023-05-10T08:10:23;10.50;;;9.87;;
727;SDS011;347;48.780;9.158;2023-05-10T08:12:49;9.90;;;9.27;;
727;SDS011;347;48.780;9.158;2023-05-10T08:15:15;8.83;;;8.60;;
727;SDS011;347;48.780;9.158;2023-05-10T08:17:40;9.47;;;9.07;;
727;SDS011;347;48.780;9.158;2023-05-10T08:20:07;9.20;;;8.90;;
727;SDS011;347;48.780;9.158;2023-05-10T08:22:33;10.40;;;10.10;;
727;SDS011;347;48.780;9.158;2023-05-10T08:24:59;10.37;;;9.97;;
727;SDS011;347;48.780;9.158;2023-05-10T08:27:24;10.70;;;10.13;;
727;SDS011;347;48.780;9.158;2023-05-10T08:29:50;10.27;;;9.97;;
727;SDS011;347;48.780;9.158;2023-05-10T08:32:16;10.70;;;10.17;;
727;SDS011;347;48.780;9.158;2023-05-10T08:34:41;10.60;;;9.80;;
727;SDS011;347;48.780;9.158;2023-05-10T08:37:07;10.20;;;9.90;;
727;SDS011;347;48.780;9.158;2023-05-10T08:39:36;10.60;;;9.90;;
727;SDS011;347;48.780;9.158;2023-05-10T08:42:02;9.97;;;9.57;;
727;SDS011;347;48.780;9.158;2023-05-10T08:44:32;10.00;;;9.60;;
727;SDS011;347;48.780;9.158;2023-05-10T08:47:02;10.30;;;9.90;;
727;SDS011;347;48.780;9.158;2023-05-10T08:49:31;9.63;;;9.33;;
727;SDS011;347;48.780;9.158;2023-05-10T08:51:57;9.60;;;9.20;;
727;SDS011;347;48.780;9.158;2023-05-10T08:54:26;9.37;;;9.00;;
727;SDS011;347;48.780;9.158;2023-05-10T08:56:52;15.67;;;11.00;;
727;SDS011;347;48.780;9.158;2023-05-10T08:59:18;10.40;;;9.77;;
727;SDS011;347;48.780;9.158;2023-05-10T09:01:44;9.30;;;8.83;;
727;SDS011;347;48.780;9.158;2023-05-10T09:04:11;9.80;;;9.40;;
727;SDS011;347;48.780;9.158;2023-05-10T09:06:37;10.70;;;10.20;;
727;SDS011;347;48.780;9.158;2023-05-10T09:09:03;9.83;;;9.53;;
727;SDS011;347;48.780;9.158;2023-05-10T09:11:29;9.17;;;8.77;;
727;SDS011;347;48.780;9.158;2023-05-10T09:13:55;10.50;;;9.87;;
727;SDS011;347;48.780;9.158;2023-05-10T09:16:21;9.63;;;9.30;;
727;SDS011;347;48.780;9.158;2023-05-10T09:18:47;9.00;;;8.80;;
727;SDS011;347;48.780;9.158;2023-05-10T09:21:14;8.73;;;8.40;;
727;SDS011;347;48.780;9.158;2023-05-10T09:23:42;9.33;;;8.93;;
727;SDS011;347;48.780;9.158;2023-05-10T09:26:08;9.47;;;8.90;;
727;SDS011;347;48.780;9.158;2023-05-10T09:28:34;9.47;;;9.07;;
727;SDS011;347;48.780;9.158;2023-05-10T09:31:16;9.30;;;8.90;;
727;SDS011;347;48.780;9.158;2023-05-10T09:33:45;9.30;;;9.00;;
727;SDS011;347;48.780;9.158;2023-05-10T09:36:11;9.53;;;9.23;;
727;SDS011;347;48.780;9.158;2023-05-10T09:38:44;9.67;;;9.00;;
727;SDS011;347;48.780;9.158;2023-05-10T09:41:17;9.00;;;8.50;;
727;SDS011;347;48.780;9.158;2023-05-10T09:43:47;10.10;;;9.07;;
727;SDS011;347;48.780;9.158;2023-05-10T09:46:14;9.20;;;8.80;;
727;SDS011;347;48.780;9.158;2023-05-10T09:48:41;8.73;;;8.47;;
727;SDS011;347;48.780;9.158;2023-05-10T09:51:08;8.27;;;7.97;;
727;SDS011;347;48.780;9.158;2023-05-10T09:53:34;8.00;;;7.60;;
727;SDS011;347;48.780;9.158;2023-05-10T09:55:59;8.60;;;8.40;;
727;SDS011;347;48.780;9.158;2023-05-10T09:58:25;8.07;;;7.67;;
727;SDS011;347;48.780;9.158;2023-05-10T10:00:51;8.77;;;8.37;;
727;SDS011;347;48.780;9.158;2023-05-10T10:03:18;8.50;;;8.20;;
727;SDS011;347;48.780;9.158;2023-05-10T10:05:45;7.97;;;7.67;;
727;SDS011;347;48.780;9.158;2023-05-10T10:08:12;8.47;;;8.17;;
727;SDS011;347;48.780;9.158;2023-05-10T10:10:39;8.60;;;8.07;;
727;SDS011;347;48.780;9.158;2023-05-10T10:13:05;8.53;;;8.23;;
727;SDS011;347;48.780;9.158;2023-05-10T10:15:32;8.53;;;8.27;;
727;SDS011;347;48.780;9.158;2023-05-10T10:17:58;8.03;;;7.73;;
727;SDS011;347;48.780;9.158;2023-05-10T10:20:25;9.97;;;9.67;;
727;SDS011;347;48.780;9.158;2023-05-10T10:22:51;8.60;;;8.40;;
727;SDS011;347;48.780;9.158;2023-05-10T10:25:17;8.57;;;8.17;;
727;SDS011;347;48.780;9.158;2023-05-10T10:30:27;7.43;;;7.23;;
727;SDS011;347;48.780;9.158;2023-05-10T10:36:03;8.53;;;8.13;;
727;SDS011;347;48.780;9.158;2023-05-10T10:38:38;9.10;;;8.60;;
727;SDS011;347;48.780;9.158;2023-05-10T10:41:34;7.83;;;7.60;;
727;SDS011;347;48.780;9.158;2023-05-10T10:52:42;8.70;;;8.50;;
727;SDS011;347;48.780;9.158;2023-05-10T10:55:18;8.43;;;8.13;;
727;SDS011;347;48.780;9.158;2023-05-10T10:57:50;8.80;;;8.50;;
727;SDS011;347;48.780;9.158;2023-05-10T11:00:28;8.20;;;7.90;;
727;SDS011;347;48.780;9.158;2023-05-10T11:02:59;7.63;;;7.23;;
727;SDS011;347;48.780;9.158;2023-05-10T11:08:26;8.17;;;7.87;;
727;SDS011;347;48.780;9.158;2023-05-10T11:13:43;8.03;;;7.73;;
727;SDS011;347;48.780;9.158;2023-05-10T11:16:11;8.00;;;7.80;;
727;SDS011;347;48.780;9.158;2023-05-10T11:18:39;8.13;;;7.53;;
727;SDS011;347;48.780;9.158;2023-05-10T11:21:07;7.40;;;7.00;;
727;SDS011;347;48.780;9.158;2023-05-10T11:26:13;9.00;;;8.70;;
727;SDS011;347;48.780;9.158;2023-05-10T11:28:46;8.10;;;7.80;;
727;SDS011;347;48.780;9.158;2023-05-10T11:31:13;8.87;;;8.57;;
727;SDS011;347;48.780;9.158;2023-05-10T11:33:43;8.90;;;8.60;;
727;SDS011;347;48.780;9.158;2023-05-10T11:36:43;8.83;;;8.63;;
727;SDS011;347;48.780;9.158;2023-05-10T11:39:02;9.00;;;8.80;;
727;SDS011;347;48.780;9.158;2023-05-10T11:41:28;8.80;;;8.50;;
727;SDS011;347;48.780;9.158;2023-05-10T11:43:56;9.10;;;8.70;;
727;SDS011;347;48.780;9.158;2023-05-10T11:46:23;8.57;;;8.30;;
727;SDS011;347;48.780;9.158;2023-05-10T11:48:53;8.30;;;8.00;;
727;SDS011;347;48.780;9.158;2023-05-10T11:51:21;9.07;;;8.67;;
727;SDS011;347;48.780;9.158;2023-05-10T11:53:48;9.50;;;8.93;;
727;SDS011;347;48.780;9.158;2023-05-10T11:56:21;9.63;;;9.33;;
727;SDS011;347;48.780;9.158;2023-05-10T11:58:57;9.50;;;9.13;;
727;SDS011;347;48.780;9.158;2023-05-10T12:01:23;9.40;;;9.00;;
727;SDS011;347;48.780;9.158;2023-05-10T12:03:50;9.63;;;9.33;;
727;SDS011;347;48.780;9.158;2023-05-10T12:06:17;10.00;;;9.70;;
727;SDS011;347;48.780;9.158;2023-05-10T12:08:45;10.17;;;9.87;;
727;SDS011;347;48.780;9.158;2023-05-10T12:11:12;10.10;;;9.70;;
727;SDS011;347;48.780;9.158;2023-05-10T12:13:42;10.10;;;9.80;;
727;SDS011;347;48.780;9.158;2023-05-10T12:16:12;10.73;;;10.00;;
727;SDS011;347;48.780;9.158;2023-05-10T12:18:41;10.33;;;10.00;;
727;SDS011;347;48.780;9.158;2023-05-10T12:21:07;10.47;;;9.97;;
727;SDS011;347;48.780;9.158;2023-05-10T12:23:35;10.10;;;9.80;;
727;SDS011;347;48.780;9.158;2023-05-10T12:26:01;10.33;;;9.93;;
727;SDS011;347;48.780;9.158;2023-05-10T12:28:29;9.53;;;9.00;;
727;SDS011;347;48.780;9.158;2023-05-10T12:30:57;10.27;;;9.77;;
727;SDS011;347;48.780;9.158;2023-05-10T12:33:23;10.17;;;9.77;;
727;SDS011;347;48.780;9.158;2023-05-10T12:35:49;9.47;;;9.17;;
727;SDS011;347;48.780;9.158;2023-05-10T12:38:31;9.40;;;8.87;;
727;SDS011;347;48.780;9.158;2023-05-10T12:40:59;9.33;;;8.73;;
727;SDS011;347;48.780;9.158;2023-05-10T12:43:26;8.53;;;8.03;;
727;SDS011;347;48.780;9.158;2023-05-10T12:45:52;9.53;;;9.03;;
727;SDS011;347;48.780;9.158;2023-05-10T12:48:17;8.27;;;7.97;;
727;SDS011;347;48.780;9.158;2023-05-10T12:50:43;9.40;;;9.00;;
727;SDS011;347;48.780;9.158;2023-05-10T12:53:09;9.30;;;8.90;;
727;SDS011;347;48.780;9.158;2023-05-10T12:55:34;8.87;;;8.37;;
727;SDS011;347;48.780;9.158;2023-05-10T12:58:00;8.63;;;8.33;;
727;SDS011;347;48.780;9.158;2023-05-10T13:00:26;8.97;;;8.67;;
727;SDS011;347;48.780;9.158;2023-05-10T13:02:51;8.40;;;8.10;;
727;SDS011;347;48.780;9.158;2023-05-10T13:05:18;8.77;;;8.53;;
727;SDS011;347;48.780;9.158;2023-05-10T13:07:43;8.90;;;8.50;;
727;SDS011;347;48.780;9.158;2023-05-10T13:10:09;9.40;;;9.00;;
727;SDS011;347;48.780;9.158;2023-05-10T13:12:35;9.13;;;8.73;;
727;SDS011;347;48.780;9.158;2023-05-10T13:15:01;9.33;;;8.83;;
727;SDS011;347;48.780;9.158;2023-05-10T13:17:27;9.13;;;8.83;;
727;SDS011;347;48.780;9.158;2023-05-10T13:19:53;9.83;;;9.20;;
727;SDS011;347;48.780;9.158;2023-05-10T13:22:19;8.30;;;8.10;;
727;SDS011;347;48.780;9.158;2023-05-10T13:24:44;8.80;;;8.50;;
727;SDS011;347;48.780;9.158;2023-05-10T13:27:10;8.90;;;8.60;;
727;SDS011;347;48.780;9.158;2023-05-10T13:29:35;8.70;;;8.40;;
727;SDS011;347;48.780;9.158;2023-05-10T13:32:01;9.10;;;8.57;;
727;SDS011;347;48.780;9.158;2023-05-10T13:34:27;10.27;;;9.57;;
727;SDS011;347;48.780;9.158;2023-05-10T13:36:52;8.77;;;8.40;;
727;SDS011;347;48.780;9.158;2023-05-10T13:39:19;9.20;;;8.80;;
727;SDS011;347;48.780;9.158;2023-05-10T13:41:45;8.83;;;8.43;;
727;SDS011;347;48.780;9.158;2023-05-10T13:44:12;9.50;;;9.03;;
727;SDS011;347;48.780;9.158;2023-05-10T13:46:39;9.40;;;8.90;;
727;SDS011;347;48.780;9.158;2023-05-10T13:49:04;9.67;;;9.07;;
727;SDS011;347;48.780;9.158;2023-05-10T13:51:30;9.10;;;8.60;;
727;SDS011;347;48.780;9.158;2023-05-10T13:53:56;8.50;;;8.20;;
727;SDS011;347;48.780;9.158;2023-05-10T13:56:22;9.20;;;8.30;;
727;SDS011;347;48.780;9.158;2023-05-10T13:58:48;8.20;;;8.00;;
727;SDS011;347;48.780;9.158;2023-05-10T14:01:13;8.43;;;8.13;;
727;SDS011;347;48.780;9.158;2023-05-10T14:03:39;8.27;;;8.07;;
727;SDS011;347;48.780;9.158;2023-05-10T14:06:05;8.40;;;8.10;;
727;SDS011;347;48.780;9.158;2023-05-10T14:08:32;8.37;;;8.17;;
727;SDS011;347;48.780;9.158;2023-05-10T14:10:57;8.07;;;7.80;;
727;SDS011;347;48.780;9.158;2023-05-10T14:13:23;8.23;;;8.00;;
727;SDS011;347;48.780;9.158;2023-05-10T14:15:49;9.00;;;8.60;;
727;SDS011;347;48.780;9.158;2023-05-10T14:18:15;7.90;;;7.60;;
727;SDS011;347;48.780;9.158;2023-05-10T14:20:41;9.10;;;8.70;;
727;SDS011;347;48.780;9.158;2023-05-10T14:23:06;7.80;;;7.40;;
727;SDS011;347;48.780;9.158;2023-05-10T14:25:32;9.10;;;8.70;;
727;SDS011;347;48.780;9.158;2023-05-10T14:27:58;8.90;;;8.60;;
727;SDS011;347;48.780;9.158;2023-05-10T14:30:23;8.60;;;8.30;;
727;SDS011;347;48.780;9.158;2023-05-10T14:32:49;8.80;;;8.53;;
727;SDS011;347;48.780;9.158;2023-05-10T14:35:15;8.70;;;8.40;;
727;SDS011;347;48.780;9.158;2023-05-10T14:37:40;8.60;;;8.40;;
727;SDS011;347;48.780;9.158;2023-05-10T14:40:06;9.00;;;8.80;;
727;SDS011;347;48.780;9.158;2023-05-10T14:42:32;9.00;;;8.47;;
727;SDS011;347;48.780;9.158;2023-05-10T14:44:57;8.30;;;8.00;;
727;SDS011;347;48.780;9.158;2023-05-10T14:47:23;9.57;;;9.00;;
727;SDS011;347;48.780;9.158;2023-05-10T14:49:48;8.40;;;8.10;;
727;SDS011;347;48.780;9.158;2023-05-10T14:52:14;7.23;;;7.03;;
727;SDS011;347;48.780;9.158;2023-05-10T14:54:40;7.30;;;7.10;;
727;SDS011;347;48.780;9.158;2023-05-10T14:57:06;7.53;;;7.30;;
727;SDS011;347;48.780;9.158;2023-05-10T14:59:31;7.63;;;7.43;;
727;SDS011;347;48.780;9.158;2023-05-10T15:01:57;7.20;;;7.00;;
727;SDS011;347;48.780;9.158;2023-05-10T15:04:23;7.67;;;6.90;;
727;SDS011;347;48.780;9.158;2023-05-10T15:06:49;7.93;;;7.63;;
727;SDS011;347;48.780;9.158;2023-05-10T15:09:14;9.00;;;8.30;;
727;SDS011;347;48.780;9.158;2023-05-10T15:11:41;7.90;;;7.60;;
727;SDS011;347;48.780;9.158;2023-05-10T15:14:06;7.80;;;7.50;;
727;SDS011;347;48.780;9.158;2023-05-10T15:16:32;8.20;;;7.70;;
727;SDS011;347;48.780;9.158;2023-05-10T15:18:58;7.33;;;7.03;;
727;SDS011;347;48.780;9.158;2023-05-10T15:21:23;8.57;;;8.23;;
727;SDS011;347;48.780;9.158;2023-05-10T15:23:49;8.03;;;7.83;;
727;SDS011;347;48.780;9.158;2023-05-10T15:26:14;8.00;;;7.80;;
727;SDS011;347;48.780;9.158;2023-05-10T15:28:40;7.30;;;7.10;;
727;SDS011;347;48.780;9.158;2023-05-10T15:31:05;7.30;;;7.10;;
727;SDS011;347;48.780;9.158;2023-05-10T15:33:31;7.93;;;7.60;;
727;SDS011;347;48.780;9.158;2023-05-10T15:35:56;8.17;;;7.87;;
727;SDS011;347;48.780;9.158;2023-05-10T15:38:22;8.10;;;7.60;;
727;SDS011;347;48.780;9.158;2023-05-10T15:40:47;7.23;;;6.93;;
727;SDS011;347;48.780;9.158;2023-05-10T15:43:13;7.60;;;7.30;;
727;SDS011;347;48.780;9.158;2023-05-10T15:45:39;7.67;;;7.40;;
727;SDS011;347;48.780;9.158;2023-05-10T15:48:04;7.37;;;7.17;;
727;SDS011;347;48.780;9.158;2023-05-10T15:50:30;7.10;;;6.80;;
727;SDS011;347;48.780;9.158;2023-05-10T15:52:55;8.10;;;7.80;;
727;SDS011;347;48.780;9.158;2023-05-10T15:55:21;7.53;;;7.30;;
727;SDS011;347;48.780;9.158;2023-05-10T15:57:46;7.90;;;7.30;;
727;SDS011;347;48.780;9.158;2023-05-10T16:00:12;7.97;;;7.77;;
727;SDS011;347;48.780;9.158;2023-05-10T16:02:39;8.87;;;8.10;;
727;SDS011;347;48.780;9.158;2023-05-10T16:05:05;8.00;;;7.80;;
727;SDS011;347;48.780;9.158;2023-05-10T16:07:30;8.23;;;7.93;;
727;SDS011;347;48.780;9.158;2023-05-10T16:09:56;8.40;;;8.20;;
727;SDS011;347;48.780;9.158;2023-05-10T16:12:21;7.83;;;7.57;;
727;SDS011;347;48.780;9.158;2023-05-10T16:14:47;7.80;;;7.50;;